Airfield :
LOGIN :

Register | Disclaimer

   EN    FR    IT 

 










Legend :    VFR   Marginal VFR   IFR   Intensive IFR   Very Intensive IFR
Visi :
Ceiling :
>= 8 km
>= 3000ft
5 to 8 km
1000 to 3000 ft
1500m to 5 km
500 to 1000 ft
800 to 1500m
200 to 500 ft
< 800m
< 200 ft
Symbols :   Thunderstorms  Fog  Heavy snow  Heavy precipitations  Wind > 20 kt
SIGMETs :     Misc.  Thunderstorms  Icing  Turbulence  Mountain Waves  Volcanic Ashes







- Airport Elevation : 1367 ft
- IATA code : FDH


EDNY - Friedrichshafen

CURRENT METAR :
  • 181550Z 25016KT 9999 BKN038 09/03 Q1006

EXPIRED METARs :
  • 181520Z 25016KT 9999 BKN038 08/04 Q1007
  • 181450Z 24021KT 9999 BKN038 BKN046 08/04 Q1007
  • 181420Z 24025KT 9999 FEW029 BKN037 BKN046 08/03 Q1007
  • 181350Z 24026G36KT 9999 BKN031 BKN037 08/03 Q1007
  • 181320Z 24024G34KT 9999 SCT024 BKN035 08/03 Q1007

TAF TAF EDNY
Valid from the 18 at 12:00 until the 19 at 12:00 UTC


181100Z 1812/1912 23020G45KT 9999 OVC020
TEMPO 1814/1904 RA
BECMG 1821/1823 24015G25KT
BECMG 1904/1906 24012KT
TEMPO 1904/1912 3000 SHRASN BKN015TCU
PROB30
TEMPO 1909/1912 1200 TSSN VV004 BKN015CB
BECMG 1910/1912 26015G25KT
No reported NOTAMs for that airfield.
2 SIGMETs reported for the München FIR (EDMM) :
 
Severe turbulence
EDMM SIGMET 6 VALID 181331/181630 EDZM
EDMM MUNCHEN FIR SEV TURB FCST N OF N4800 SFC/FL060 MOV E NC=
Severe turbulence
EDMM SIGMET 5 VALID 181200/181600 EDZM
EDMM MUNCHEN FIR SEV TURB FCST S OF N4800 SFC/FL130 STNR NC=



MET'MAP, your aeronautical weather chart ! - Copyright ORBIFLY December 2007 - Disclaimer

ORBIFLY MET'MAP TEAM :

Programming & Development : Alexandra Zaïnal
Concept & Development : Baudouin d'Aumeries
Co-Development & Prog : Marc-Olivier Méhu
Technical & hardware support : Manuel Goepfert

Contact : metmap@orbifly.com




SOURCES & CREDITS :

   NOAA